createdAt,value
2022-07-28T00:00:57.125Z,0.20
2022-07-28T00:03:24.776Z,0.20
2022-07-28T00:05:53.828Z,0.20
2022-07-28T00:08:21.372Z,0.20
2022-07-28T00:10:48.872Z,0.20
2022-07-28T00:13:16.352Z,0.20
2022-07-28T00:15:43.847Z,0.20
2022-07-28T00:18:11.327Z,0.20
2022-07-28T00:20:38.827Z,0.20
2022-07-28T00:23:07.735Z,0.25
2022-07-28T00:25:35.243Z,0.30
2022-07-28T00:28:02.756Z,0.20
2022-07-28T00:30:30.645Z,0.30
2022-07-28T00:32:58.264Z,0.22
2022-07-28T00:35:31.134Z,0.20
2022-07-28T00:37:59.351Z,0.20
2022-07-28T00:40:42.915Z,0.20
2022-07-28T00:43:10.436Z,0.20
2022-07-28T00:45:37.968Z,0.20
2022-07-28T00:48:05.801Z,0.20
2022-07-28T00:50:33.417Z,0.20
2022-07-28T00:53:01.183Z,0.20
2022-07-28T00:55:30.037Z,0.20
2022-07-28T00:57:57.695Z,0.20
2022-07-28T01:00:25.256Z,0.30
2022-07-28T01:02:53.149Z,0.20
2022-07-28T01:05:44.149Z,0.20
2022-07-28T01:08:11.518Z,0.30
2022-07-28T01:10:44.943Z,0.30
2022-07-28T01:13:14.563Z,0.25
2022-07-28T01:15:45.559Z,0.20
2022-07-28T01:18:16.991Z,0.30
2022-07-28T01:20:47.324Z,0.20
2022-07-28T01:23:26.737Z,0.20
2022-07-28T01:26:01.771Z,0.20
2022-07-28T01:28:33.875Z,0.20
2022-07-28T01:31:05.334Z,0.30
2022-07-28T01:33:36.112Z,0.30
2022-07-28T01:36:04.407Z,0.20
2022-07-28T01:38:33.819Z,0.30
2022-07-28T01:41:02.139Z,0.20
2022-07-28T01:43:30.084Z,0.30
2022-07-28T01:45:57.999Z,0.20
2022-07-28T01:48:28.226Z,0.30
2022-07-28T01:50:56.477Z,0.30
2022-07-28T01:53:24.522Z,0.30
2022-07-28T01:55:53.137Z,0.30
2022-07-28T01:58:23.041Z,0.20
2022-07-28T02:00:51.283Z,0.20
2022-07-28T02:03:20.476Z,0.20
2022-07-28T02:05:50.881Z,0.20
2022-07-28T02:08:20.194Z,0.30
2022-07-28T02:11:09.738Z,0.20
2022-07-28T02:13:38.521Z,0.20
2022-07-28T02:16:07.569Z,0.30
2022-07-28T02:18:35.890Z,0.30
2022-07-28T02:21:05.408Z,0.30
2022-07-28T02:23:33.630Z,0.30
2022-07-28T02:26:02.245Z,0.30
2022-07-28T02:28:29.856Z,0.30
2022-07-28T02:30:59.616Z,0.20
2022-07-28T02:33:33.076Z,0.30
2022-07-28T02:36:18.550Z,0.30
2022-07-28T02:38:48.035Z,0.20
2022-07-28T02:41:16.950Z,0.20
2022-07-28T02:43:49.620Z,0.30
2022-07-28T02:46:19.787Z,0.30
2022-07-28T02:48:48.359Z,0.30
2022-07-28T02:51:18.362Z,0.30
2022-07-28T02:53:46.179Z,0.30
2022-07-28T02:56:13.903Z,0.30
2022-07-28T02:58:48.359Z,0.30
2022-07-28T03:01:18.242Z,0.20
2022-07-28T03:03:46.530Z,0.20
2022-07-28T03:06:14.272Z,0.20
2022-07-28T03:08:43.139Z,0.20
2022-07-28T03:11:11.060Z,0.30
2022-07-28T03:13:38.928Z,0.30
2022-07-28T03:16:06.980Z,0.30
2022-07-28T03:18:34.545Z,0.30
2022-07-28T03:21:02.111Z,0.30
2022-07-28T03:23:31.033Z,0.30
2022-07-28T03:26:03.213Z,0.30
2022-07-28T03:28:31.060Z,0.30
2022-07-28T03:31:01.439Z,0.20
2022-07-28T03:33:29.288Z,0.30
2022-07-28T03:35:57.946Z,0.30
2022-07-28T03:38:27.067Z,0.28
2022-07-28T03:40:55.171Z,0.20
2022-07-28T03:43:25.833Z,0.20
2022-07-28T03:45:53.404Z,0.30
2022-07-28T03:48:44.855Z,0.28
2022-07-28T03:51:25.834Z,0.30
2022-07-28T03:54:16.445Z,0.30
2022-07-28T03:56:53.816Z,0.30
2022-07-28T03:59:35.629Z,0.30
2022-07-28T04:02:09.096Z,0.30
2022-07-28T04:04:39.489Z,0.20
2022-07-28T04:07:16.168Z,0.30
2022-07-28T04:09:57.353Z,0.30
2022-07-28T04:12:30.618Z,0.30
2022-07-28T04:14:59.967Z,0.30
2022-07-28T04:17:27.479Z,0.28
2022-07-28T04:19:54.983Z,0.20
2022-07-28T04:22:22.502Z,0.30
2022-07-28T04:24:50.500Z,0.30
2022-07-28T04:27:18.055Z,0.20
2022-07-28T04:29:45.717Z,0.20
2022-07-28T04:32:14.554Z,0.20
2022-07-28T04:34:42.111Z,0.20
2022-07-28T04:37:09.890Z,0.20
2022-07-28T04:39:37.430Z,0.30
2022-07-28T04:42:04.962Z,0.30
2022-07-28T04:44:32.463Z,0.20
2022-07-28T04:47:00.064Z,0.20
2022-07-28T04:49:28.886Z,0.20
2022-07-28T04:51:57.144Z,0.20
2022-07-28T04:54:26.774Z,0.20
2022-07-28T04:56:54.484Z,0.30
2022-07-28T04:59:23.632Z,0.20
2022-07-28T05:01:53.024Z,0.20
2022-07-28T05:04:20.871Z,0.30
2022-07-28T05:06:49.853Z,0.20
2022-07-28T05:09:17.444Z,0.20
2022-07-28T05:11:44.950Z,0.20
2022-07-28T05:14:12.880Z,0.20
2022-07-28T05:16:41.067Z,0.30
2022-07-28T05:19:09.553Z,0.10
2022-07-28T05:21:37.217Z,0.20
2022-07-28T05:24:10.684Z,0.20
2022-07-28T05:26:38.402Z,0.10
2022-07-28T05:29:05.929Z,0.20
2022-07-28T05:31:33.501Z,0.10
2022-07-28T05:34:01.553Z,0.20
2022-07-28T05:36:29.089Z,0.15
2022-07-28T05:38:56.647Z,0.00
2022-07-28T05:41:25.551Z,0.10
2022-07-28T05:43:53.031Z,0.10
2022-07-28T05:46:22.055Z,0.20
2022-07-28T05:48:49.622Z,0.10
2022-07-28T05:51:17.186Z,0.10
2022-07-28T05:53:44.754Z,0.10
2022-07-28T05:56:12.290Z,0.20
2022-07-28T05:58:41.208Z,0.20
2022-07-28T06:01:08.848Z,0.13
2022-07-28T06:03:41.840Z,0.13
2022-07-28T06:06:14.851Z,0.20
2022-07-28T06:08:43.222Z,0.20
2022-07-28T06:11:11.735Z,0.10
2022-07-28T06:13:40.967Z,0.10
2022-07-28T06:16:13.161Z,0.10
2022-07-28T06:18:43.876Z,0.10
2022-07-28T06:21:11.775Z,0.10
2022-07-28T06:23:39.386Z,0.10
2022-07-28T06:26:06.913Z,0.03
2022-07-28T06:28:34.855Z,0.10
2022-07-28T06:31:03.718Z,0.10
2022-07-28T06:33:31.315Z,0.10
2022-07-28T06:35:59.027Z,0.10
2022-07-28T06:38:26.566Z,0.10
2022-07-28T06:40:54.431Z,0.10
2022-07-28T06:43:21.935Z,0.10
2022-07-28T06:45:51.197Z,0.10
2022-07-28T06:48:20.229Z,0.10
2022-07-28T06:50:47.964Z,0.10
2022-07-28T06:53:15.506Z,0.08
2022-07-28T06:55:43.215Z,0.00
2022-07-28T06:58:17.688Z,0.00
2022-07-28T07:00:45.330Z,0.00
2022-07-28T07:03:12.939Z,0.10
2022-07-28T07:05:41.890Z,0.00
2022-07-28T07:08:09.422Z,0.00
2022-07-28T07:10:37.124Z,0.00
2022-07-28T07:13:04.765Z,0.00
2022-07-28T07:15:32.266Z,0.00
2022-07-28T07:18:02.667Z,0.00
2022-07-28T07:20:30.422Z,0.00
2022-07-28T07:22:59.331Z,0.00
2022-07-28T07:25:26.860Z,0.00
2022-07-28T07:27:54.723Z,0.00
2022-07-28T07:30:22.377Z,0.00
2022-07-28T07:32:50.127Z,0.00
2022-07-28T07:35:17.643Z,0.00
2022-07-28T07:37:45.154Z,0.00
2022-07-28T07:40:14.011Z,0.00
2022-07-28T07:42:41.677Z,0.00
2022-07-28T07:45:10.128Z,0.00
2022-07-28T07:47:37.647Z,0.00
2022-07-28T07:50:05.683Z,0.00
2022-07-28T07:52:33.243Z,0.00
2022-07-28T07:55:01.020Z,0.00
2022-07-28T07:57:29.951Z,0.00
2022-07-28T07:59:57.496Z,0.00
2022-07-28T08:02:25.031Z,0.00
2022-07-28T08:04:52.662Z,0.00
2022-07-28T08:07:22.020Z,0.00
2022-07-28T08:09:49.981Z,0.00
2022-07-28T08:12:17.576Z,0.00
2022-07-28T08:14:53.741Z,0.00
2022-07-28T09:35:18.780Z,0.10
2022-07-28T09:37:46.331Z,0.10
2022-07-28T09:40:17.873Z,0.10
2022-07-28T09:42:50.365Z,0.10
2022-07-28T09:45:23.422Z,0.10
2022-07-28T09:48:08.801Z,0.10
2022-07-28T09:50:36.531Z,0.10
2022-07-28T09:53:20.841Z,0.10
2022-07-28T10:03:25.728Z,0.13
2022-07-28T10:05:54.001Z,0.10
2022-07-28T10:08:39.405Z,0.10
2022-07-28T10:11:10.071Z,0.10
2022-07-28T10:13:38.289Z,0.10
2022-07-28T10:16:13.440Z,0.10
2022-07-28T10:18:41.582Z,0.10
2022-07-28T10:21:09.567Z,0.10
2022-07-28T10:31:02.893Z,0.15
2022-07-28T10:33:33.257Z,0.10
2022-07-28T10:36:01.740Z,0.10
2022-07-28T10:38:34.378Z,0.10
2022-07-28T10:41:03.212Z,0.10
2022-07-28T10:43:31.842Z,0.10
2022-07-28T10:46:09.696Z,0.10
2022-07-28T10:48:39.372Z,0.10
2022-07-28T10:51:07.090Z,0.10
2022-07-28T10:53:39.575Z,0.10
2022-07-28T10:56:10.844Z,0.10
2022-07-28T10:58:43.784Z,0.10
2022-07-28T11:01:48.271Z,0.10
2022-07-28T11:04:31.867Z,0.20
2022-07-28T11:07:11.706Z,0.10
2022-07-28T11:09:39.428Z,0.10
2022-07-28T11:12:09.931Z,0.10
2022-07-28T11:14:39.093Z,0.10
2022-07-28T11:17:14.010Z,0.10
2022-07-28T11:20:24.968Z,0.10
2022-07-28T11:22:43.827Z,0.10
2022-07-28T11:25:18.376Z,0.10
2022-07-28T11:28:00.955Z,0.10
2022-07-28T11:30:47.083Z,0.10
2022-07-28T11:33:14.673Z,0.10
2022-07-28T11:35:54.256Z,0.10
2022-07-28T11:38:23.881Z,0.10
2022-07-28T11:40:52.503Z,0.20
2022-07-28T11:43:36.803Z,0.10
2022-07-28T11:46:37.511Z,0.10
2022-07-28T11:49:19.613Z,0.05
2022-07-28T11:52:06.002Z,0.10
2022-07-28T11:54:35.221Z,0.10
2022-07-28T11:57:04.149Z,0.10
2022-07-28T11:59:41.354Z,0.10
2022-07-28T12:02:10.073Z,0.10
2022-07-28T12:04:37.732Z,0.10
2022-07-28T12:07:05.381Z,0.10
2022-07-28T12:09:42.064Z,0.10
2022-07-28T12:12:11.730Z,0.10
2022-07-28T12:14:40.214Z,0.10
2022-07-28T12:17:08.331Z,0.10
2022-07-28T12:19:35.929Z,0.10
2022-07-28T12:22:10.179Z,0.10
2022-07-28T12:24:45.830Z,0.10
2022-07-28T12:27:16.791Z,0.10
2022-07-28T12:29:49.341Z,0.10
2022-07-28T12:32:17.513Z,0.10
2022-07-28T12:34:46.011Z,0.10
2022-07-28T12:37:14.595Z,0.10
2022-07-28T12:39:44.167Z,0.10
2022-07-28T12:42:12.551Z,0.10
2022-07-28T12:44:42.197Z,0.10
2022-07-28T12:47:11.785Z,0.10
2022-07-28T12:49:40.349Z,0.10
2022-07-28T12:52:17.913Z,0.10
2022-07-28T12:54:54.717Z,0.10
2022-07-28T12:57:37.729Z,0.10
2022-07-28T13:00:08.567Z,0.10
2022-07-28T13:02:36.780Z,0.00
2022-07-28T13:05:05.164Z,0.10
2022-07-28T13:07:32.757Z,0.00
2022-07-28T13:10:04.577Z,0.10
2022-07-28T13:12:32.501Z,0.03
2022-07-28T13:15:00.759Z,0.10
2022-07-28T13:17:31.570Z,0.03
2022-07-28T13:20:10.132Z,0.10
2022-07-28T13:22:37.996Z,0.10
2022-07-28T13:25:05.913Z,0.10
2022-07-28T13:27:33.858Z,0.00
2022-07-28T13:30:01.971Z,0.10
2022-07-28T13:32:31.277Z,0.00
2022-07-28T13:34:58.791Z,0.10
2022-07-28T13:37:26.755Z,0.10
2022-07-28T13:39:54.919Z,0.10
2022-07-28T13:42:23.692Z,0.10
2022-07-28T13:44:51.514Z,0.10
2022-07-28T13:47:19.097Z,0.10
2022-07-28T13:49:48.434Z,0.10
2022-07-28T13:52:27.913Z,0.10
2022-07-28T13:55:04.028Z,0.10
2022-07-28T13:57:31.992Z,0.10
2022-07-28T14:00:06.599Z,0.10
2022-07-28T14:02:35.427Z,0.08
2022-07-28T14:05:04.733Z,0.10
2022-07-28T14:07:32.230Z,0.10
2022-07-28T14:09:59.710Z,0.10
2022-07-28T14:12:27.306Z,0.10
2022-07-28T14:14:56.248Z,0.10
2022-07-28T14:20:13.600Z,0.00
2022-07-28T14:22:41.327Z,0.10
2022-07-28T14:25:09.217Z,0.00
2022-07-28T14:27:36.811Z,0.03
2022-07-28T14:30:04.936Z,0.10
2022-07-28T14:32:32.799Z,0.00
2022-07-28T14:35:01.984Z,0.00
2022-07-28T14:37:41.150Z,0.03
2022-07-28T14:40:19.200Z,0.00
2022-07-28T14:42:46.980Z,0.00
2022-07-28T14:45:14.470Z,0.10
2022-07-28T14:47:44.507Z,0.10
2022-07-28T14:50:13.196Z,0.10
2022-07-28T14:52:44.849Z,0.00
2022-07-28T14:55:12.914Z,0.00
2022-07-28T14:57:51.902Z,0.08
2022-07-28T15:00:22.578Z,0.05
2022-07-28T15:02:51.461Z,0.10
2022-07-28T15:05:19.722Z,0.10
2022-07-28T15:07:49.473Z,0.10
2022-07-28T15:10:17.134Z,0.00
2022-07-28T15:12:44.772Z,0.10
2022-07-28T15:15:12.895Z,0.05
2022-07-28T15:17:40.562Z,0.00
2022-07-28T15:20:09.004Z,0.10
2022-07-28T15:22:36.571Z,0.10
2022-07-28T15:25:06.153Z,0.00
2022-07-28T15:27:34.149Z,0.00
2022-07-28T15:30:02.698Z,0.05
2022-07-28T15:32:30.942Z,0.10
2022-07-28T15:34:58.576Z,0.00
2022-07-28T15:37:26.591Z,0.08
2022-07-28T15:39:54.114Z,0.00
2022-07-28T15:42:23.040Z,0.00
2022-07-28T15:44:50.539Z,0.10
2022-07-28T15:47:18.081Z,0.05
2022-07-28T15:49:45.693Z,0.10
2022-07-28T15:52:14.400Z,0.00
2022-07-28T15:54:42.035Z,0.08
2022-07-28T15:57:09.720Z,0.10
2022-07-28T15:59:49.865Z,0.10
2022-07-28T16:02:18.665Z,0.00
2022-07-28T16:04:53.589Z,0.00
2022-07-28T16:07:23.308Z,0.10
2022-07-28T16:09:51.369Z,0.08
2022-07-28T16:12:19.254Z,0.00
2022-07-28T16:14:48.197Z,0.00
2022-07-28T16:17:15.840Z,0.00
2022-07-28T16:19:49.333Z,0.10
2022-07-28T16:22:17.851Z,0.10
2022-07-28T16:24:45.686Z,0.00
2022-07-28T16:27:13.913Z,0.00
2022-07-28T16:29:41.694Z,0.00
2022-07-28T16:32:11.204Z,0.05
2022-07-28T16:34:38.744Z,0.00
2022-07-28T16:37:06.392Z,0.10
2022-07-28T16:39:34.139Z,0.00
2022-07-28T16:42:02.662Z,0.10
2022-07-28T16:44:30.419Z,0.10
2022-07-28T16:46:58.263Z,0.03
2022-07-28T16:49:27.272Z,0.10
2022-07-28T16:51:55.553Z,0.00
2022-07-28T16:54:23.282Z,0.10
2022-07-28T16:56:50.987Z,0.10
2022-07-28T16:59:18.572Z,0.00
2022-07-28T17:01:46.894Z,0.08
2022-07-28T17:04:15.154Z,0.08
2022-07-28T17:06:44.759Z,0.10
2022-07-28T17:09:13.077Z,0.00
2022-07-28T17:11:41.746Z,0.00
2022-07-28T17:14:09.284Z,0.10
2022-07-28T17:16:36.851Z,0.10
2022-07-28T17:19:05.010Z,0.00
2022-07-28T17:21:32.572Z,0.10
2022-07-28T17:24:01.472Z,0.10
2022-07-28T17:27:33.594Z,0.00
2022-07-28T17:29:17.343Z,0.00
2022-07-28T17:31:44.987Z,0.00
2022-07-28T17:34:14.178Z,0.10
2022-07-28T17:36:42.199Z,0.10
2022-07-28T17:39:11.228Z,0.10
2022-07-28T17:41:39.085Z,0.10
2022-07-28T17:44:06.690Z,0.10
2022-07-28T17:46:35.567Z,0.10
2022-07-28T17:49:28.747Z,0.10
2022-07-28T17:51:56.342Z,0.10
2022-07-28T17:54:26.040Z,0.10
2022-07-28T17:56:53.947Z,0.00
2022-07-28T17:59:21.464Z,0.03
2022-07-28T18:01:50.830Z,0.10
2022-07-28T18:04:19.304Z,0.00
2022-07-28T18:06:47.221Z,0.10
2022-07-28T18:09:15.498Z,0.10
2022-07-28T18:11:57.191Z,0.10
2022-07-28T18:14:26.659Z,0.10
2022-07-28T18:16:54.330Z,0.10
2022-07-28T18:19:21.943Z,0.10
2022-07-28T18:21:49.516Z,0.10
2022-07-28T18:24:18.016Z,0.00
2022-07-28T18:26:47.185Z,0.10
2022-07-28T18:29:15.022Z,0.10
2022-07-28T18:31:46.389Z,0.10
2022-07-28T18:34:15.043Z,0.10
2022-07-28T18:36:42.926Z,0.10
2022-07-28T18:39:11.429Z,0.10
2022-07-28T18:41:46.631Z,0.10
2022-07-28T18:44:17.884Z,0.10
2022-07-28T18:46:46.222Z,0.10
2022-07-28T18:49:38.161Z,0.10
2022-07-28T19:25:24.245Z,0.10
2022-07-28T19:27:54.138Z,0.17
2022-07-28T19:30:21.675Z,0.10
2022-07-28T19:32:49.166Z,0.10
2022-07-28T19:35:18.086Z,0.10
2022-07-28T19:37:45.632Z,0.10
2022-07-28T19:40:13.299Z,0.10
2022-07-28T19:42:40.786Z,0.10
2022-07-28T19:45:09.001Z,0.10
2022-07-28T19:47:37.049Z,0.20
2022-07-28T19:50:05.961Z,0.10
2022-07-28T19:52:35.670Z,0.10
2022-07-28T19:55:05.918Z,0.10
2022-07-28T19:57:34.213Z,0.10
2022-07-28T20:00:02.171Z,0.10
2022-07-28T20:02:39.664Z,0.10
2022-07-28T20:05:08.230Z,0.10
2022-07-28T20:07:37.223Z,0.10
2022-07-28T20:10:05.225Z,0.10
2022-07-28T20:12:36.339Z,0.10
2022-07-28T20:15:05.060Z,0.15
2022-07-28T20:17:38.482Z,0.10
2022-07-28T20:20:07.197Z,0.10
2022-07-28T20:22:34.861Z,0.10
2022-07-28T20:25:04.045Z,0.10
2022-07-28T20:27:31.744Z,0.10
2022-07-28T20:30:08.807Z,0.20
2022-07-28T20:32:37.419Z,0.10
2022-07-28T20:35:05.347Z,0.10
2022-07-28T20:37:36.818Z,0.10
2022-07-28T20:40:07.484Z,0.10
2022-07-28T20:42:35.167Z,0.20
2022-07-28T20:45:02.858Z,0.10
2022-07-28T20:47:32.303Z,0.10
2022-07-28T20:50:00.089Z,0.20
2022-07-28T20:52:27.684Z,0.10
2022-07-28T20:54:55.309Z,0.10
2022-07-28T20:57:24.344Z,0.20
2022-07-28T20:59:52.371Z,0.10
2022-07-28T21:02:20.183Z,0.10
2022-07-28T21:04:50.348Z,0.10
2022-07-28T21:07:59.912Z,0.20
2022-07-28T21:10:06.835Z,0.13
2022-07-28T21:12:36.985Z,0.20
2022-07-28T21:15:04.902Z,0.10
2022-07-28T21:17:32.453Z,0.10
2022-07-28T21:20:00.136Z,0.20
2022-07-28T21:22:27.761Z,0.20
2022-07-28T21:24:55.871Z,0.20
2022-07-28T21:27:23.953Z,0.10
2022-07-28T21:32:21.343Z,0.20
2022-07-28T21:34:48.858Z,0.20
2022-07-28T21:37:16.466Z,0.15
2022-07-28T21:39:44.212Z,0.17
2022-07-28T21:42:11.729Z,0.20
2022-07-28T21:44:39.243Z,0.20
2022-07-28T21:47:08.189Z,0.10
2022-07-28T21:49:35.869Z,0.20
2022-07-28T21:52:03.406Z,0.20
2022-07-28T21:54:30.989Z,0.20
2022-07-28T21:56:58.739Z,0.20
2022-07-28T21:59:26.322Z,0.20
2022-07-28T22:01:53.901Z,0.20
2022-07-28T22:04:22.945Z,0.20
2022-07-28T22:06:53.376Z,0.20
2022-07-28T22:09:20.899Z,0.22
2022-07-28T22:11:48.449Z,0.20
2022-07-28T22:14:16.417Z,0.20
2022-07-28T22:16:44.340Z,0.20
2022-07-28T22:19:12.704Z,0.20
2022-07-28T22:21:41.623Z,0.10
2022-07-28T22:24:09.718Z,0.20
2022-07-28T22:26:37.285Z,0.20
2022-07-28T22:29:04.885Z,0.20
2022-07-28T22:31:32.625Z,0.20
2022-07-28T22:34:00.226Z,0.20
2022-07-28T22:36:27.837Z,0.20
2022-07-28T22:38:56.690Z,0.20
2022-07-28T22:41:24.323Z,0.20
2022-07-28T22:43:51.861Z,0.20
2022-07-28T22:46:19.440Z,0.20
2022-07-28T22:48:47.121Z,0.20
2022-07-28T22:51:15.454Z,0.30
2022-07-28T22:53:43.093Z,0.20
2022-07-28T22:56:12.200Z,0.20
2022-07-28T22:58:40.086Z,0.10
2022-07-28T23:01:07.767Z,0.20
2022-07-28T23:03:35.512Z,0.20
2022-07-28T23:06:03.729Z,0.20
2022-07-28T23:08:31.263Z,0.20
2022-07-28T23:10:58.739Z,0.10
2022-07-28T23:13:27.647Z,0.20
2022-07-28T23:15:55.207Z,0.20
2022-07-28T23:18:22.831Z,0.20
2022-07-28T23:20:50.323Z,0.20
2022-07-28T23:23:18.519Z,0.10
2022-07-28T23:25:46.620Z,0.20
2022-07-28T23:28:14.223Z,0.20
2022-07-28T23:30:43.092Z,0.20
2022-07-28T23:33:15.659Z,0.10
2022-07-28T23:35:58.127Z,0.10
2022-07-28T23:38:25.921Z,0.20
2022-07-28T23:40:53.453Z,0.20
2022-07-28T23:43:21.006Z,0.10
2022-07-28T23:45:49.873Z,0.20
2022-07-28T23:48:17.469Z,0.20
2022-07-28T23:50:45.021Z,0.10
2022-07-28T23:53:12.553Z,0.20
2022-07-28T23:55:40.040Z,0.20
2022-07-28T23:58:07.590Z,0.20
